sensor_id;sensor_type;location;lat;lon;timestamp;P1;durP1;ratioP1;P2;durP2;ratioP2
32321;SDS011;61553;48.994;8.940;2023-06-22T00:00:56;9.95;;;6.35;;
32321;SDS011;61553;48.994;8.940;2023-06-22T00:03:23;9.30;;;6.00;;
32321;SDS011;61553;48.994;8.940;2023-06-22T00:05:50;8.70;;;6.20;;
32321;SDS011;61553;48.994;8.940;2023-06-22T00:08:16;12.55;;;6.95;;
32321;SDS011;61553;48.994;8.940;2023-06-22T00:10:43;11.65;;;6.68;;
32321;SDS011;61553;48.994;8.940;2023-06-22T00:13:10;7.97;;;6.13;;
32321;SDS011;61553;48.994;8.940;2023-06-22T00:15:37;11.38;;;7.05;;
32321;SDS011;61553;48.994;8.940;2023-06-22T00:18:04;11.43;;;6.75;;
32321;SDS011;61553;48.994;8.940;2023-06-22T00:20:32;12.60;;;7.32;;
32321;SDS011;61553;48.994;8.940;2023-06-22T00:23:01;9.15;;;6.80;;
32321;SDS011;61553;48.994;8.940;2023-06-22T00:25:37;11.95;;;6.88;;
32321;SDS011;61553;48.994;8.940;2023-06-22T00:28:05;13.73;;;6.97;;
32321;SDS011;61553;48.994;8.940;2023-06-22T00:30:31;10.90;;;7.13;;
32321;SDS011;61553;48.994;8.940;2023-06-22T00:32:57;11.30;;;7.32;;
32321;SDS011;61553;48.994;8.940;2023-06-22T00:35:24;13.73;;;7.40;;
32321;SDS011;61553;48.994;8.940;2023-06-22T00:37:59;12.02;;;7.10;;
32321;SDS011;61553;48.994;8.940;2023-06-22T00:40:29;14.25;;;8.00;;
32321;SDS011;61553;48.994;8.940;2023-06-22T00:42:56;8.63;;;6.28;;
32321;SDS011;61553;48.994;8.940;2023-06-22T00:45:22;10.98;;;7.78;;
32321;SDS011;61553;48.994;8.940;2023-06-22T00:47:52;11.75;;;7.20;;
32321;SDS011;61553;48.994;8.940;2023-06-22T00:50:19;13.85;;;6.90;;
32321;SDS011;61553;48.994;8.940;2023-06-22T00:52:53;16.38;;;7.30;;
32321;SDS011;61553;48.994;8.940;2023-06-22T00:55:23;10.52;;;6.90;;
32321;SDS011;61553;48.994;8.940;2023-06-22T00:57:51;11.52;;;6.68;;
32321;SDS011;61553;48.994;8.940;2023-06-22T01:00:20;11.13;;;7.00;;
32321;SDS011;61553;48.994;8.940;2023-06-22T01:02:49;9.60;;;7.05;;
32321;SDS011;61553;48.994;8.940;2023-06-22T01:05:18;10.80;;;7.05;;
32321;SDS011;61553;48.994;8.940;2023-06-22T01:10:24;16.33;;;7.13;;
32321;SDS011;61553;48.994;8.940;2023-06-22T01:13:17;14.15;;;6.95;;
32321;SDS011;61553;48.994;8.940;2023-06-22T01:16:03;11.15;;;7.63;;
32321;SDS011;61553;48.994;8.940;2023-06-22T01:18:35;10.32;;;6.75;;
32321;SDS011;61553;48.994;8.940;2023-06-22T01:21:04;9.70;;;6.65;;
32321;SDS011;61553;48.994;8.940;2023-06-22T01:29:38;9.77;;;6.25;;
32321;SDS011;61553;48.994;8.940;2023-06-22T01:32:06;12.98;;;7.50;;
32321;SDS011;61553;48.994;8.940;2023-06-22T01:34:32;11.10;;;7.18;;
32321;SDS011;61553;48.994;8.940;2023-06-22T01:36:59;10.13;;;7.25;;
32321;SDS011;61553;48.994;8.940;2023-06-22T01:39:27;11.88;;;6.30;;
32321;SDS011;61553;48.994;8.940;2023-06-22T01:41:53;10.25;;;7.55;;
32321;SDS011;61553;48.994;8.940;2023-06-22T01:44:19;9.55;;;7.10;;
32321;SDS011;61553;48.994;8.940;2023-06-22T01:46:46;13.38;;;7.25;;
32321;SDS011;61553;48.994;8.940;2023-06-22T01:49:14;11.38;;;7.20;;
32321;SDS011;61553;48.994;8.940;2023-06-22T01:51:40;13.48;;;7.15;;
32321;SDS011;61553;48.994;8.940;2023-06-22T01:54:06;10.80;;;7.22;;
32321;SDS011;61553;48.994;8.940;2023-06-22T01:56:33;14.98;;;8.63;;
32321;SDS011;61553;48.994;8.940;2023-06-22T02:02:06;12.65;;;7.22;;
32321;SDS011;61553;48.994;8.940;2023-06-22T02:04:44;12.77;;;6.78;;
32321;SDS011;61553;48.994;8.940;2023-06-22T02:07:17;14.98;;;7.18;;
32321;SDS011;61553;48.994;8.940;2023-06-22T02:09:44;14.85;;;7.85;;
32321;SDS011;61553;48.994;8.940;2023-06-22T02:12:12;11.85;;;7.72;;
32321;SDS011;61553;48.994;8.940;2023-06-22T02:14:42;13.57;;;8.00;;
32321;SDS011;61553;48.994;8.940;2023-06-22T02:17:08;12.85;;;7.50;;
32321;SDS011;61553;48.994;8.940;2023-06-22T02:19:38;13.20;;;8.43;;
32321;SDS011;61553;48.994;8.940;2023-06-22T02:22:06;10.70;;;6.93;;
32321;SDS011;61553;48.994;8.940;2023-06-22T02:24:32;10.10;;;8.05;;
32321;SDS011;61553;48.994;8.940;2023-06-22T02:26:58;19.17;;;8.65;;
32321;SDS011;61553;48.994;8.940;2023-06-22T02:29:25;14.50;;;9.05;;
32321;SDS011;61553;48.994;8.940;2023-06-22T02:31:51;15.45;;;7.78;;
32321;SDS011;61553;48.994;8.940;2023-06-22T02:34:17;18.20;;;8.90;;
32321;SDS011;61553;48.994;8.940;2023-06-22T02:36:46;11.70;;;7.88;;
32321;SDS011;61553;48.994;8.940;2023-06-22T02:41:45;14.13;;;7.13;;
32321;SDS011;61553;48.994;8.940;2023-06-22T02:44:11;12.30;;;7.85;;
32321;SDS011;61553;48.994;8.940;2023-06-22T02:46:36;11.43;;;7.88;;
32321;SDS011;61553;48.994;8.940;2023-06-22T02:49:02;12.57;;;7.13;;
32321;SDS011;61553;48.994;8.940;2023-06-22T02:51:28;16.52;;;7.75;;
32321;SDS011;61553;48.994;8.940;2023-06-22T02:53:53;11.73;;;7.70;;
32321;SDS011;61553;48.994;8.940;2023-06-22T02:56:22;14.50;;;7.80;;
32321;SDS011;61553;48.994;8.940;2023-06-22T02:58:50;14.00;;;9.00;;
32321;SDS011;61553;48.994;8.940;2023-06-22T03:01:16;11.77;;;7.60;;
32321;SDS011;61553;48.994;8.940;2023-06-22T03:03:42;11.32;;;8.35;;
32321;SDS011;61553;48.994;8.940;2023-06-22T03:06:07;13.88;;;7.72;;
32321;SDS011;61553;48.994;8.940;2023-06-22T03:08:35;13.77;;;7.80;;
32321;SDS011;61553;48.994;8.940;2023-06-22T03:11:01;10.90;;;7.38;;
32321;SDS011;61553;48.994;8.940;2023-06-22T03:13:27;10.43;;;6.72;;
32321;SDS011;61553;48.994;8.940;2023-06-22T03:15:52;12.70;;;8.00;;
32321;SDS011;61553;48.994;8.940;2023-06-22T03:18:18;11.82;;;7.57;;
32321;SDS011;61553;48.994;8.940;2023-06-22T03:20:44;13.07;;;8.60;;
32321;SDS011;61553;48.994;8.940;2023-06-22T03:23:09;13.25;;;8.63;;
32321;SDS011;61553;48.994;8.940;2023-06-22T03:25:35;12.23;;;7.78;;
32321;SDS011;61553;48.994;8.940;2023-06-22T03:28:01;12.70;;;7.45;;
32321;SDS011;61553;48.994;8.940;2023-06-22T03:30:26;13.30;;;8.43;;
32321;SDS011;61553;48.994;8.940;2023-06-22T03:32:52;14.85;;;8.73;;
32321;SDS011;61553;48.994;8.940;2023-06-22T03:35:18;11.48;;;7.90;;
32321;SDS011;61553;48.994;8.940;2023-06-22T03:37:43;12.70;;;7.68;;
32321;SDS011;61553;48.994;8.940;2023-06-22T03:40:09;15.73;;;9.88;;
32321;SDS011;61553;48.994;8.940;2023-06-22T03:42:35;16.00;;;9.38;;
32321;SDS011;61553;48.994;8.940;2023-06-22T03:45:01;13.73;;;9.43;;
32321;SDS011;61553;48.994;8.940;2023-06-22T03:47:28;17.13;;;9.85;;
32321;SDS011;61553;48.994;8.940;2023-06-22T03:49:54;13.68;;;9.07;;
32321;SDS011;61553;48.994;8.940;2023-06-22T03:52:21;15.68;;;9.60;;
32321;SDS011;61553;48.994;8.940;2023-06-22T03:54:47;12.85;;;9.45;;
32321;SDS011;61553;48.994;8.940;2023-06-22T03:57:13;12.48;;;8.63;;
32321;SDS011;61553;48.994;8.940;2023-06-22T03:59:38;14.02;;;10.02;;
32321;SDS011;61553;48.994;8.940;2023-06-22T04:02:04;16.33;;;10.00;;
32321;SDS011;61553;48.994;8.940;2023-06-22T04:04:30;17.30;;;9.98;;
32321;SDS011;61553;48.994;8.940;2023-06-22T04:06:55;14.70;;;10.60;;
32321;SDS011;61553;48.994;8.940;2023-06-22T04:09:21;14.18;;;9.88;;
32321;SDS011;61553;48.994;8.940;2023-06-22T04:11:47;14.40;;;9.60;;
32321;SDS011;61553;48.994;8.940;2023-06-22T04:14:12;15.38;;;10.50;;
32321;SDS011;61553;48.994;8.940;2023-06-22T04:16:38;17.98;;;9.02;;
32321;SDS011;61553;48.994;8.940;2023-06-22T04:19:04;13.35;;;10.13;;
32321;SDS011;61553;48.994;8.940;2023-06-22T04:21:29;20.38;;;11.60;;
32321;SDS011;61553;48.994;8.940;2023-06-22T04:23:55;17.73;;;9.77;;
32321;SDS011;61553;48.994;8.940;2023-06-22T04:26:20;11.63;;;8.55;;
32321;SDS011;61553;48.994;8.940;2023-06-22T04:28:49;17.13;;;9.85;;
32321;SDS011;61553;48.994;8.940;2023-06-22T04:31:16;18.27;;;10.43;;
32321;SDS011;61553;48.994;8.940;2023-06-22T04:33:43;14.20;;;9.23;;
32321;SDS011;61553;48.994;8.940;2023-06-22T04:36:09;12.88;;;9.18;;
32321;SDS011;61553;48.994;8.940;2023-06-22T04:38:38;15.68;;;8.77;;
32321;SDS011;61553;48.994;8.940;2023-06-22T04:41:04;19.60;;;8.68;;
32321;SDS011;61553;48.994;8.940;2023-06-22T04:43:29;13.32;;;8.18;;
32321;SDS011;61553;48.994;8.940;2023-06-22T04:45:56;21.08;;;9.25;;
32321;SDS011;61553;48.994;8.940;2023-06-22T04:48:28;19.55;;;9.57;;
32321;SDS011;61553;48.994;8.940;2023-06-22T04:50:58;11.40;;;8.07;;
32321;SDS011;61553;48.994;8.940;2023-06-22T04:53:28;13.82;;;7.72;;
32321;SDS011;61553;48.994;8.940;2023-06-22T04:55:54;12.70;;;8.20;;
32321;SDS011;61553;48.994;8.940;2023-06-22T04:58:20;17.73;;;8.52;;
32321;SDS011;61553;48.994;8.940;2023-06-22T05:00:46;13.82;;;8.70;;
32321;SDS011;61553;48.994;8.940;2023-06-22T05:03:12;12.88;;;7.93;;
32321;SDS011;61553;48.994;8.940;2023-06-22T05:05:38;12.27;;;8.00;;
32321;SDS011;61553;48.994;8.940;2023-06-22T05:08:04;12.68;;;7.30;;
32321;SDS011;61553;48.994;8.940;2023-06-22T05:10:32;11.68;;;7.00;;
32321;SDS011;61553;48.994;8.940;2023-06-22T05:12:58;15.23;;;7.95;;
32321;SDS011;61553;48.994;8.940;2023-06-22T05:15:24;11.93;;;6.95;;
32321;SDS011;61553;48.994;8.940;2023-06-22T05:17:53;10.05;;;7.47;;
32321;SDS011;61553;48.994;8.940;2023-06-22T05:20:18;11.98;;;7.63;;
32321;SDS011;61553;48.994;8.940;2023-06-22T05:22:44;11.73;;;6.82;;
32321;SDS011;61553;48.994;8.940;2023-06-22T05:25:10;12.65;;;7.25;;
32321;SDS011;61553;48.994;8.940;2023-06-22T05:27:36;12.23;;;6.95;;
32321;SDS011;61553;48.994;8.940;2023-06-22T05:30:06;12.52;;;7.32;;
32321;SDS011;61553;48.994;8.940;2023-06-22T05:32:33;11.07;;;7.38;;
32321;SDS011;61553;48.994;8.940;2023-06-22T05:34:59;10.63;;;7.13;;
32321;SDS011;61553;48.994;8.940;2023-06-22T05:37:24;10.07;;;7.47;;
32321;SDS011;61553;48.994;8.940;2023-06-22T05:39:51;10.35;;;7.18;;
32321;SDS011;61553;48.994;8.940;2023-06-22T05:42:17;11.50;;;7.68;;
32321;SDS011;61553;48.994;8.940;2023-06-22T05:44:42;11.88;;;7.03;;
32321;SDS011;61553;48.994;8.940;2023-06-22T05:47:08;11.95;;;7.57;;
32321;SDS011;61553;48.994;8.940;2023-06-22T05:49:34;11.18;;;7.45;;
32321;SDS011;61553;48.994;8.940;2023-06-22T05:51:59;9.80;;;6.78;;
32321;SDS011;61553;48.994;8.940;2023-06-22T05:54:26;13.57;;;7.45;;
32321;SDS011;61553;48.994;8.940;2023-06-22T05:56:53;9.23;;;6.28;;
32321;SDS011;61553;48.994;8.940;2023-06-22T05:59:18;12.80;;;7.25;;
32321;SDS011;61553;48.994;8.940;2023-06-22T06:01:44;11.50;;;7.55;;
32321;SDS011;61553;48.994;8.940;2023-06-22T06:04:18;10.45;;;6.45;;
32321;SDS011;61553;48.994;8.940;2023-06-22T06:06:43;12.30;;;7.20;;
32321;SDS011;61553;48.994;8.940;2023-06-22T06:09:09;9.70;;;6.70;;
32321;SDS011;61553;48.994;8.940;2023-06-22T06:11:36;12.15;;;7.22;;
32321;SDS011;61553;48.994;8.940;2023-06-22T06:14:02;10.60;;;6.95;;
32321;SDS011;61553;48.994;8.940;2023-06-22T06:16:28;12.00;;;7.25;;
32321;SDS011;61553;48.994;8.940;2023-06-22T06:18:53;13.80;;;6.88;;
32321;SDS011;61553;48.994;8.940;2023-06-22T06:21:20;9.77;;;5.95;;
32321;SDS011;61553;48.994;8.940;2023-06-22T06:23:46;10.88;;;6.95;;
32321;SDS011;61553;48.994;8.940;2023-06-22T06:26:13;9.23;;;6.32;;
32321;SDS011;61553;48.994;8.940;2023-06-22T06:28:41;10.48;;;6.32;;
32321;SDS011;61553;48.994;8.940;2023-06-22T06:31:07;9.57;;;6.00;;
32321;SDS011;61553;48.994;8.940;2023-06-22T06:33:33;10.65;;;5.45;;
32321;SDS011;61553;48.994;8.940;2023-06-22T06:35:59;9.63;;;5.75;;
32321;SDS011;61553;48.994;8.940;2023-06-22T06:38:27;10.23;;;5.55;;
32321;SDS011;61553;48.994;8.940;2023-06-22T06:40:53;9.88;;;6.55;;
32321;SDS011;61553;48.994;8.940;2023-06-22T06:43:18;8.68;;;5.40;;
32321;SDS011;61553;48.994;8.940;2023-06-22T06:45:44;13.38;;;5.85;;
32321;SDS011;61553;48.994;8.940;2023-06-22T06:48:09;9.88;;;5.68;;
32321;SDS011;61553;48.994;8.940;2023-06-22T06:50:35;9.95;;;6.25;;
32321;SDS011;61553;48.994;8.940;2023-06-22T06:53:01;8.23;;;5.15;;
32321;SDS011;61553;48.994;8.940;2023-06-22T06:55:26;10.02;;;6.07;;
32321;SDS011;61553;48.994;8.940;2023-06-22T06:57:55;8.05;;;5.65;;
32321;SDS011;61553;48.994;8.940;2023-06-22T07:00:20;12.60;;;6.72;;
32321;SDS011;61553;48.994;8.940;2023-06-22T07:02:46;10.63;;;5.95;;
32321;SDS011;61553;48.994;8.940;2023-06-22T07:05:13;8.80;;;5.72;;
32321;SDS011;61553;48.994;8.940;2023-06-22T07:07:39;10.52;;;4.95;;
32321;SDS011;61553;48.994;8.940;2023-06-22T07:10:06;9.85;;;6.15;;
32321;SDS011;61553;48.994;8.940;2023-06-22T07:12:32;9.50;;;5.28;;
32321;SDS011;61553;48.994;8.940;2023-06-22T07:15:04;8.98;;;5.75;;
32321;SDS011;61553;48.994;8.940;2023-06-22T07:17:34;8.15;;;4.93;;
32321;SDS011;61553;48.994;8.940;2023-06-22T07:20:06;8.02;;;4.97;;
32321;SDS011;61553;48.994;8.940;2023-06-22T07:22:37;10.93;;;5.07;;
32321;SDS011;61553;48.994;8.940;2023-06-22T07:25:03;9.82;;;5.47;;
32321;SDS011;61553;48.994;8.940;2023-06-22T07:27:39;9.65;;;5.10;;
32321;SDS011;61553;48.994;8.940;2023-06-22T07:30:10;10.77;;;5.22;;
32321;SDS011;61553;48.994;8.940;2023-06-22T07:32:37;8.82;;;5.35;;
32321;SDS011;61553;48.994;8.940;2023-06-22T07:35:03;11.38;;;4.50;;
32321;SDS011;61553;48.994;8.940;2023-06-22T07:37:29;9.52;;;5.47;;
32321;SDS011;61553;48.994;8.940;2023-06-22T07:39:55;8.30;;;5.35;;
32321;SDS011;61553;48.994;8.940;2023-06-22T07:42:25;8.45;;;5.10;;
32321;SDS011;61553;48.994;8.940;2023-06-22T07:44:51;9.40;;;5.43;;
32321;SDS011;61553;48.994;8.940;2023-06-22T07:47:17;8.02;;;4.50;;
32321;SDS011;61553;48.994;8.940;2023-06-22T07:49:47;8.45;;;4.97;;
32321;SDS011;61553;48.994;8.940;2023-06-22T07:52:13;6.07;;;4.47;;
32321;SDS011;61553;48.994;8.940;2023-06-22T07:54:39;7.10;;;4.82;;
32321;SDS011;61553;48.994;8.940;2023-06-22T07:57:04;10.90;;;5.82;;
32321;SDS011;61553;48.994;8.940;2023-06-22T07:59:30;9.52;;;4.90;;
32321;SDS011;61553;48.994;8.940;2023-06-22T08:01:56;9.25;;;5.22;;
32321;SDS011;61553;48.994;8.940;2023-06-22T08:04:21;7.60;;;4.85;;
32321;SDS011;61553;48.994;8.940;2023-06-22T08:06:47;7.38;;;4.68;;
32321;SDS011;61553;48.994;8.940;2023-06-22T08:09:14;8.48;;;4.80;;
32321;SDS011;61553;48.994;8.940;2023-06-22T08:11:39;7.93;;;4.55;;
32321;SDS011;61553;48.994;8.940;2023-06-22T08:14:05;8.50;;;4.47;;
32321;SDS011;61553;48.994;8.940;2023-06-22T08:16:31;8.70;;;4.85;;
32321;SDS011;61553;48.994;8.940;2023-06-22T08:18:56;7.60;;;4.53;;
32321;SDS011;61553;48.994;8.940;2023-06-22T08:21:22;7.97;;;5.00;;
32321;SDS011;61553;48.994;8.940;2023-06-22T08:23:48;10.93;;;5.38;;
32321;SDS011;61553;48.994;8.940;2023-06-22T08:26:14;11.38;;;5.43;;
32321;SDS011;61553;48.994;8.940;2023-06-22T08:28:40;10.57;;;5.20;;
32321;SDS011;61553;48.994;8.940;2023-06-22T08:31:05;8.48;;;5.65;;
32321;SDS011;61553;48.994;8.940;2023-06-22T08:33:31;11.38;;;5.63;;
32321;SDS011;61553;48.994;8.940;2023-06-22T08:35:58;9.60;;;5.35;;
32321;SDS011;61553;48.994;8.940;2023-06-22T08:38:24;9.43;;;5.32;;
32321;SDS011;61553;48.994;8.940;2023-06-22T08:40:50;9.02;;;5.18;;
32321;SDS011;61553;48.994;8.940;2023-06-22T08:43:15;9.05;;;5.28;;
32321;SDS011;61553;48.994;8.940;2023-06-22T08:45:41;7.88;;;4.95;;
32321;SDS011;61553;48.994;8.940;2023-06-22T08:48:06;9.82;;;5.25;;
32321;SDS011;61553;48.994;8.940;2023-06-22T08:50:32;8.55;;;5.30;;
32321;SDS011;61553;48.994;8.940;2023-06-22T08:52:58;10.55;;;6.18;;
32321;SDS011;61553;48.994;8.940;2023-06-22T08:55:23;8.85;;;5.68;;
32321;SDS011;61553;48.994;8.940;2023-06-22T08:57:49;10.48;;;5.40;;
32321;SDS011;61553;48.994;8.940;2023-06-22T09:00:16;11.32;;;5.93;;
32321;SDS011;61553;48.994;8.940;2023-06-22T09:02:43;12.20;;;5.32;;
32321;SDS011;61553;48.994;8.940;2023-06-22T09:05:10;10.07;;;6.13;;
32321;SDS011;61553;48.994;8.940;2023-06-22T09:07:35;8.80;;;5.75;;
32321;SDS011;61553;48.994;8.940;2023-06-22T09:10:01;9.80;;;5.82;;
32321;SDS011;61553;48.994;8.940;2023-06-22T09:12:29;7.50;;;5.47;;
32321;SDS011;61553;48.994;8.940;2023-06-22T09:14:55;9.63;;;5.50;;
32321;SDS011;61553;48.994;8.940;2023-06-22T09:17:22;14.27;;;6.25;;
32321;SDS011;61553;48.994;8.940;2023-06-22T09:19:48;8.63;;;5.70;;
32321;SDS011;61553;48.994;8.940;2023-06-22T09:22:14;10.43;;;5.80;;
32321;SDS011;61553;48.994;8.940;2023-06-22T09:24:39;7.63;;;5.20;;
32321;SDS011;61553;48.994;8.940;2023-06-22T09:27:05;10.10;;;5.72;;
32321;SDS011;61553;48.994;8.940;2023-06-22T09:29:31;10.27;;;5.75;;
32321;SDS011;61553;48.994;8.940;2023-06-22T09:31:58;9.55;;;5.85;;
32321;SDS011;61553;48.994;8.940;2023-06-22T09:34:24;12.68;;;6.03;;
32321;SDS011;61553;48.994;8.940;2023-06-22T09:36:50;10.60;;;5.78;;
32321;SDS011;61553;48.994;8.940;2023-06-22T09:39:17;11.23;;;5.72;;
32321;SDS011;61553;48.994;8.940;2023-06-22T09:41:43;12.27;;;5.60;;
32321;SDS011;61553;48.994;8.940;2023-06-22T09:44:09;10.50;;;5.95;;
32321;SDS011;61553;48.994;8.940;2023-06-22T09:46:35;9.60;;;5.70;;
32321;SDS011;61553;48.994;8.940;2023-06-22T09:49:00;10.20;;;6.00;;
32321;SDS011;61553;48.994;8.940;2023-06-22T09:51:26;9.50;;;5.90;;
32321;SDS011;61553;48.994;8.940;2023-06-22T09:53:52;9.75;;;5.13;;
32321;SDS011;61553;48.994;8.940;2023-06-22T09:56:20;11.90;;;6.15;;
32321;SDS011;61553;48.994;8.940;2023-06-22T09:58:46;11.93;;;5.93;;
32321;SDS011;61553;48.994;8.940;2023-06-22T10:01:12;7.28;;;4.78;;
32321;SDS011;61553;48.994;8.940;2023-06-22T10:03:41;10.18;;;5.85;;
32321;SDS011;61553;48.994;8.940;2023-06-22T10:06:07;11.88;;;5.68;;
32321;SDS011;61553;48.994;8.940;2023-06-22T10:08:34;10.48;;;5.57;;
32321;SDS011;61553;48.994;8.940;2023-06-22T10:11:00;8.32;;;4.80;;
32321;SDS011;61553;48.994;8.940;2023-06-22T10:13:26;10.85;;;5.57;;
32321;SDS011;61553;48.994;8.940;2023-06-22T10:15:52;8.95;;;5.25;;
32321;SDS011;61553;48.994;8.940;2023-06-22T10:18:18;10.55;;;5.68;;
32321;SDS011;61553;48.994;8.940;2023-06-22T10:20:44;11.55;;;5.68;;
32321;SDS011;61553;48.994;8.940;2023-06-22T10:23:16;9.68;;;5.88;;
32321;SDS011;61553;48.994;8.940;2023-06-22T10:25:42;12.88;;;5.97;;
32321;SDS011;61553;48.994;8.940;2023-06-22T10:28:08;14.32;;;6.03;;
32321;SDS011;61553;48.994;8.940;2023-06-22T10:30:33;10.25;;;6.13;;
32321;SDS011;61553;48.994;8.940;2023-06-22T10:32:59;8.95;;;5.82;;
32321;SDS011;61553;48.994;8.940;2023-06-22T10:35:24;12.02;;;5.82;;
32321;SDS011;61553;48.994;8.940;2023-06-22T10:37:50;10.45;;;5.80;;
32321;SDS011;61553;48.994;8.940;2023-06-22T10:40:16;11.27;;;5.80;;
32321;SDS011;61553;48.994;8.940;2023-06-22T10:42:43;9.52;;;4.95;;
32321;SDS011;61553;48.994;8.940;2023-06-22T10:45:10;9.95;;;6.00;;
32321;SDS011;61553;48.994;8.940;2023-06-22T10:47:36;12.93;;;6.78;;
32321;SDS011;61553;48.994;8.940;2023-06-22T10:50:02;10.23;;;5.60;;
32321;SDS011;61553;48.994;8.940;2023-06-22T10:52:28;10.85;;;6.30;;
32321;SDS011;61553;48.994;8.940;2023-06-22T10:54:53;16.42;;;6.00;;
32321;SDS011;61553;48.994;8.940;2023-06-22T10:57:19;13.90;;;6.10;;
32321;SDS011;61553;48.994;8.940;2023-06-22T10:59:45;9.55;;;5.65;;
32321;SDS011;61553;48.994;8.940;2023-06-22T11:02:10;13.82;;;6.15;;
32321;SDS011;61553;48.994;8.940;2023-06-22T11:04:36;10.52;;;6.15;;
32321;SDS011;61553;48.994;8.940;2023-06-22T11:07:02;13.02;;;6.25;;
32321;SDS011;61553;48.994;8.940;2023-06-22T11:09:27;13.98;;;6.55;;
32321;SDS011;61553;48.994;8.940;2023-06-22T11:11:53;10.70;;;6.10;;
32321;SDS011;61553;48.994;8.940;2023-06-22T11:14:21;12.15;;;5.40;;
32321;SDS011;61553;48.994;8.940;2023-06-22T11:16:47;10.50;;;6.00;;
32321;SDS011;61553;48.994;8.940;2023-06-22T11:19:13;12.50;;;5.80;;
32321;SDS011;61553;48.994;8.940;2023-06-22T11:21:38;10.80;;;6.00;;
32321;SDS011;61553;48.994;8.940;2023-06-22T11:24:04;9.35;;;5.63;;
32321;SDS011;61553;48.994;8.940;2023-06-22T11:26:30;14.43;;;6.15;;
32321;SDS011;61553;48.994;8.940;2023-06-22T11:28:56;14.05;;;5.88;;
32321;SDS011;61553;48.994;8.940;2023-06-22T11:31:22;14.25;;;6.22;;
32321;SDS011;61553;48.994;8.940;2023-06-22T11:33:48;10.63;;;5.85;;
32321;SDS011;61553;48.994;8.940;2023-06-22T11:36:14;11.35;;;5.80;;
32321;SDS011;61553;48.994;8.940;2023-06-22T11:38:40;11.85;;;5.70;;
32321;SDS011;61553;48.994;8.940;2023-06-22T11:41:07;10.52;;;6.10;;
32321;SDS011;61553;48.994;8.940;2023-06-22T11:43:33;14.07;;;6.07;;
32321;SDS011;61553;48.994;8.940;2023-06-22T11:46:00;15.50;;;6.95;;
32321;SDS011;61553;48.994;8.940;2023-06-22T11:48:27;10.57;;;5.80;;
32321;SDS011;61553;48.994;8.940;2023-06-22T11:50:52;13.57;;;6.38;;
32321;SDS011;61553;48.994;8.940;2023-06-22T11:53:20;10.73;;;6.20;;
32321;SDS011;61553;48.994;8.940;2023-06-22T11:55:46;9.95;;;5.80;;
32321;SDS011;61553;48.994;8.940;2023-06-22T11:58:14;10.68;;;5.82;;
32321;SDS011;61553;48.994;8.940;2023-06-22T12:00:39;12.27;;;6.25;;
32321;SDS011;61553;48.994;8.940;2023-06-22T12:03:05;12.70;;;5.50;;
32321;SDS011;61553;48.994;8.940;2023-06-22T12:05:31;9.80;;;5.40;;
32321;SDS011;61553;48.994;8.940;2023-06-22T12:07:56;12.35;;;6.07;;
32321;SDS011;61553;48.994;8.940;2023-06-22T12:10:22;11.82;;;6.60;;
32321;SDS011;61553;48.994;8.940;2023-06-22T12:12:48;15.60;;;6.85;;
32321;SDS011;61553;48.994;8.940;2023-06-22T12:15:14;10.38;;;5.75;;
32321;SDS011;61553;48.994;8.940;2023-06-22T12:17:40;16.70;;;7.00;;
32321;SDS011;61553;48.994;8.940;2023-06-22T12:20:06;12.15;;;6.03;;
32321;SDS011;61553;48.994;8.940;2023-06-22T12:22:33;10.75;;;6.22;;
32321;SDS011;61553;48.994;8.940;2023-06-22T12:24:59;15.48;;;5.75;;
32321;SDS011;61553;48.994;8.940;2023-06-22T12:27:25;9.50;;;6.35;;
32321;SDS011;61553;48.994;8.940;2023-06-22T12:29:51;12.32;;;5.78;;
32321;SDS011;61553;48.994;8.940;2023-06-22T12:32:16;12.60;;;6.18;;
32321;SDS011;61553;48.994;8.940;2023-06-22T12:34:42;16.52;;;6.57;;
32321;SDS011;61553;48.994;8.940;2023-06-22T12:37:08;11.00;;;5.90;;
32321;SDS011;61553;48.994;8.940;2023-06-22T12:39:34;13.52;;;6.50;;
32321;SDS011;61553;48.994;8.940;2023-06-22T12:42:00;10.93;;;5.82;;
32321;SDS011;61553;48.994;8.940;2023-06-22T12:44:26;12.95;;;6.10;;
32321;SDS011;61553;48.994;8.940;2023-06-22T12:46:52;12.68;;;6.20;;
32321;SDS011;61553;48.994;8.940;2023-06-22T12:49:17;14.60;;;6.03;;
32321;SDS011;61553;48.994;8.940;2023-06-22T12:51:43;13.75;;;5.88;;
32321;SDS011;61553;48.994;8.940;2023-06-22T12:54:09;13.68;;;5.90;;
32321;SDS011;61553;48.994;8.940;2023-06-22T12:56:36;13.93;;;5.97;;
32321;SDS011;61553;48.994;8.940;2023-06-22T12:59:02;13.07;;;5.72;;
32321;SDS011;61553;48.994;8.940;2023-06-22T13:01:29;11.40;;;5.40;;
32321;SDS011;61553;48.994;8.940;2023-06-22T13:03:55;13.60;;;6.03;;
32321;SDS011;61553;48.994;8.940;2023-06-22T13:06:21;12.98;;;5.93;;
32321;SDS011;61553;48.994;8.940;2023-06-22T13:08:47;11.75;;;5.95;;
32321;SDS011;61553;48.994;8.940;2023-06-22T13:11:13;17.10;;;5.88;;
32321;SDS011;61553;48.994;8.940;2023-06-22T13:13:40;15.18;;;5.72;;
32321;SDS011;61553;48.994;8.940;2023-06-22T13:16:05;12.55;;;6.57;;
32321;SDS011;61553;48.994;8.940;2023-06-22T13:18:31;11.57;;;6.57;;
32321;SDS011;61553;48.994;8.940;2023-06-22T13:20:59;13.40;;;6.32;;
32321;SDS011;61553;48.994;8.940;2023-06-22T13:23:25;12.77;;;5.63;;
32321;SDS011;61553;48.994;8.940;2023-06-22T13:25:51;10.98;;;5.97;;
32321;SDS011;61553;48.994;8.940;2023-06-22T13:28:16;11.38;;;6.38;;
32321;SDS011;61553;48.994;8.940;2023-06-22T13:30:42;13.68;;;5.65;;
32321;SDS011;61553;48.994;8.940;2023-06-22T13:33:11;14.23;;;5.70;;
32321;SDS011;61553;48.994;8.940;2023-06-22T13:35:36;15.90;;;6.22;;
32321;SDS011;61553;48.994;8.940;2023-06-22T13:38:03;10.48;;;5.78;;
32321;SDS011;61553;48.994;8.940;2023-06-22T13:40:29;16.77;;;5.43;;
32321;SDS011;61553;48.994;8.940;2023-06-22T13:42:55;14.90;;;6.47;;
32321;SDS011;61553;48.994;8.940;2023-06-22T13:45:20;16.10;;;6.40;;
32321;SDS011;61553;48.994;8.940;2023-06-22T13:47:46;9.85;;;6.25;;
32321;SDS011;61553;48.994;8.940;2023-06-22T13:50:12;15.57;;;6.28;;
32321;SDS011;61553;48.994;8.940;2023-06-22T13:52:38;15.73;;;6.13;;
32321;SDS011;61553;48.994;8.940;2023-06-22T13:55:04;10.18;;;6.13;;
32321;SDS011;61553;48.994;8.940;2023-06-22T13:57:31;13.00;;;6.20;;
32321;SDS011;61553;48.994;8.940;2023-06-22T13:59:57;11.23;;;5.85;;
32321;SDS011;61553;48.994;8.940;2023-06-22T14:02:23;10.23;;;5.40;;
32321;SDS011;61553;48.994;8.940;2023-06-22T14:04:48;13.45;;;6.13;;
32321;SDS011;61553;48.994;8.940;2023-06-22T14:07:14;12.55;;;5.70;;
32321;SDS011;61553;48.994;8.940;2023-06-22T14:09:40;10.43;;;5.97;;
32321;SDS011;61553;48.994;8.940;2023-06-22T14:12:06;10.30;;;5.65;;
32321;SDS011;61553;48.994;8.940;2023-06-22T14:14:32;14.13;;;6.38;;
32321;SDS011;61553;48.994;8.940;2023-06-22T14:16:58;13.10;;;6.18;;
32321;SDS011;61553;48.994;8.940;2023-06-22T14:19:24;11.52;;;6.40;;
32321;SDS011;61553;48.994;8.940;2023-06-22T14:21:50;13.50;;;7.05;;
32321;SDS011;61553;48.994;8.940;2023-06-22T14:24:16;14.73;;;6.20;;
32321;SDS011;61553;48.994;8.940;2023-06-22T14:26:41;11.45;;;6.43;;
32321;SDS011;61553;48.994;8.940;2023-06-22T14:29:07;13.73;;;6.03;;
32321;SDS011;61553;48.994;8.940;2023-06-22T14:31:33;14.38;;;5.65;;
32321;SDS011;61553;48.994;8.940;2023-06-22T14:33:58;10.48;;;5.93;;
32321;SDS011;61553;48.994;8.940;2023-06-22T14:36:25;15.50;;;6.20;;
32321;SDS011;61553;48.994;8.940;2023-06-22T14:38:51;13.13;;;6.18;;
32321;SDS011;61553;48.994;8.940;2023-06-22T14:41:16;16.50;;;6.05;;
32321;SDS011;61553;48.994;8.940;2023-06-22T14:43:46;19.10;;;6.43;;
32321;SDS011;61553;48.994;8.940;2023-06-22T14:46:14;17.13;;;6.55;;
32321;SDS011;61553;48.994;8.940;2023-06-22T14:48:40;14.20;;;6.20;;